sensor_id;sensor_type;location;lat;lon;timestamp;P1;durP1;ratioP1;P2;durP2;ratioP2
67500;SDS011;54349;52.528;19.760;2023-03-03T00:02:16;12.10;;;7.80;;
67500;SDS011;54349;52.528;19.760;2023-03-03T00:04:45;12.20;;;7.50;;
67500;SDS011;54349;52.528;19.760;2023-03-03T00:07:13;11.60;;;7.50;;
67500;SDS011;54349;52.528;19.760;2023-03-03T00:09:49;12.30;;;7.70;;
67500;SDS011;54349;52.528;19.760;2023-03-03T00:12:28;13.10;;;7.90;;
67500;SDS011;54349;52.528;19.760;2023-03-03T00:14:57;11.90;;;8.00;;
67500;SDS011;54349;52.528;19.760;2023-03-03T00:17:28;12.80;;;8.40;;
67500;SDS011;54349;52.528;19.760;2023-03-03T00:19:57;12.10;;;7.50;;
67500;SDS011;54349;52.528;19.760;2023-03-03T00:22:29;12.60;;;7.70;;
67500;SDS011;54349;52.528;19.760;2023-03-03T00:24:59;12.30;;;7.70;;
67500;SDS011;54349;52.528;19.760;2023-03-03T00:27:48;11.60;;;7.30;;
67500;SDS011;54349;52.528;19.760;2023-03-03T00:30:23;13.60;;;8.20;;
67500;SDS011;54349;52.528;19.760;2023-03-03T00:32:54;13.20;;;7.80;;
67500;SDS011;54349;52.528;19.760;2023-03-03T00:35:28;13.80;;;8.10;;
67500;SDS011;54349;52.528;19.760;2023-03-03T00:37:59;14.10;;;7.40;;
67500;SDS011;54349;52.528;19.760;2023-03-03T00:40:37;12.90;;;8.10;;
67500;SDS011;54349;52.528;19.760;2023-03-03T00:45:56;12.30;;;8.10;;
67500;SDS011;54349;52.528;19.760;2023-03-03T00:48:46;13.40;;;8.00;;
67500;SDS011;54349;52.528;19.760;2023-03-03T00:53:49;13.30;;;8.10;;
67500;SDS011;54349;52.528;19.760;2023-03-03T00:56:17;13.70;;;7.90;;
67500;SDS011;54349;52.528;19.760;2023-03-03T00:58:45;12.50;;;7.50;;
67500;SDS011;54349;52.528;19.760;2023-03-03T01:01:17;12.70;;;8.10;;
67500;SDS011;54349;52.528;19.760;2023-03-03T01:03:49;14.40;;;8.60;;
67500;SDS011;54349;52.528;19.760;2023-03-03T01:06:17;15.40;;;9.10;;
67500;SDS011;54349;52.528;19.760;2023-03-03T01:08:45;14.50;;;8.60;;
67500;SDS011;54349;52.528;19.760;2023-03-03T01:11:24;14.50;;;9.30;;
67500;SDS011;54349;52.528;19.760;2023-03-03T01:13:55;13.30;;;8.40;;
67500;SDS011;54349;52.528;19.760;2023-03-03T01:16:26;13.20;;;9.00;;
67500;SDS011;54349;52.528;19.760;2023-03-03T01:18:55;13.40;;;8.80;;
67500;SDS011;54349;52.528;19.760;2023-03-03T01:21:23;13.20;;;8.60;;
67500;SDS011;54349;52.528;19.760;2023-03-03T01:23:51;15.70;;;9.60;;
67500;SDS011;54349;52.528;19.760;2023-03-03T01:26:19;15.80;;;9.50;;
67500;SDS011;54349;52.528;19.760;2023-03-03T01:28:47;15.40;;;9.70;;
67500;SDS011;54349;52.528;19.760;2023-03-03T01:31:17;15.10;;;9.50;;
67500;SDS011;54349;52.528;19.760;2023-03-03T01:33:45;14.20;;;9.10;;
67500;SDS011;54349;52.528;19.760;2023-03-03T01:36:13;15.20;;;9.50;;
67500;SDS011;54349;52.528;19.760;2023-03-03T01:38:41;15.60;;;9.40;;
67500;SDS011;54349;52.528;19.760;2023-03-03T01:41:10;15.30;;;9.80;;
67500;SDS011;54349;52.528;19.760;2023-03-03T01:43:46;16.10;;;10.10;;
67500;SDS011;54349;52.528;19.760;2023-03-03T01:46:32;16.10;;;10.10;;
67500;SDS011;54349;52.528;19.760;2023-03-03T01:49:41;15.50;;;9.60;;
67500;SDS011;54349;52.528;19.760;2023-03-03T01:52:38;14.90;;;10.20;;
67500;SDS011;54349;52.528;19.760;2023-03-03T01:55:25;17.90;;;10.70;;
67500;SDS011;54349;52.528;19.760;2023-03-03T01:58:08;17.20;;;10.50;;
67500;SDS011;54349;52.528;19.760;2023-03-03T02:00:40;16.40;;;10.50;;
67500;SDS011;54349;52.528;19.760;2023-03-03T02:03:10;16.30;;;10.50;;
67500;SDS011;54349;52.528;19.760;2023-03-03T02:05:40;17.50;;;11.10;;
67500;SDS011;54349;52.528;19.760;2023-03-03T02:08:11;18.10;;;11.20;;
67500;SDS011;54349;52.528;19.760;2023-03-03T02:10:45;17.70;;;11.00;;
67500;SDS011;54349;52.528;19.760;2023-03-03T02:13:14;19.00;;;11.00;;
67500;SDS011;54349;52.528;19.760;2023-03-03T02:15:42;17.50;;;11.00;;
67500;SDS011;54349;52.528;19.760;2023-03-03T02:18:12;18.50;;;11.40;;
67500;SDS011;54349;52.528;19.760;2023-03-03T02:28:30;17.90;;;11.30;;
67500;SDS011;54349;52.528;19.760;2023-03-03T02:31:05;17.00;;;11.10;;
67500;SDS011;54349;52.528;19.760;2023-03-03T02:33:42;18.90;;;11.40;;
67500;SDS011;54349;52.528;19.760;2023-03-03T02:36:13;19.50;;;11.50;;
67500;SDS011;54349;52.528;19.760;2023-03-03T02:46:39;19.20;;;11.40;;
67500;SDS011;54349;52.528;19.760;2023-03-03T02:49:11;19.70;;;11.80;;
67500;SDS011;54349;52.528;19.760;2023-03-03T02:51:41;19.80;;;12.00;;
67500;SDS011;54349;52.528;19.760;2023-03-03T02:54:11;18.70;;;12.00;;
67500;SDS011;54349;52.528;19.760;2023-03-03T02:56:41;19.90;;;12.20;;
67500;SDS011;54349;52.528;19.760;2023-03-03T02:59:10;18.80;;;12.00;;
67500;SDS011;54349;52.528;19.760;2023-03-03T03:01:43;19.70;;;12.10;;
67500;SDS011;54349;52.528;19.760;2023-03-03T03:04:24;21.70;;;12.90;;
67500;SDS011;54349;52.528;19.760;2023-03-03T03:06:54;20.60;;;12.30;;
67500;SDS011;54349;52.528;19.760;2023-03-03T03:09:24;20.50;;;12.70;;
67500;SDS011;54349;52.528;19.760;2023-03-03T03:11:53;20.40;;;12.30;;
67500;SDS011;54349;52.528;19.760;2023-03-03T03:14:24;23.50;;;12.60;;
67500;SDS011;54349;52.528;19.760;2023-03-03T03:16:53;20.40;;;13.30;;
67500;SDS011;54349;52.528;19.760;2023-03-03T03:19:21;20.40;;;12.50;;
67500;SDS011;54349;52.528;19.760;2023-03-03T03:21:49;21.70;;;13.00;;
67500;SDS011;54349;52.528;19.760;2023-03-03T03:24:17;21.80;;;13.10;;
67500;SDS011;54349;52.528;19.760;2023-03-03T03:26:50;21.10;;;13.20;;
67500;SDS011;54349;52.528;19.760;2023-03-03T03:29:19;23.50;;;12.80;;
67500;SDS011;54349;52.528;19.760;2023-03-03T03:31:47;21.10;;;13.10;;
67500;SDS011;54349;52.528;19.760;2023-03-03T03:34:15;19.70;;;12.30;;
67500;SDS011;54349;52.528;19.760;2023-03-03T03:36:43;23.00;;;13.50;;
67500;SDS011;54349;52.528;19.760;2023-03-03T03:39:13;23.50;;;13.40;;
67500;SDS011;54349;52.528;19.760;2023-03-03T03:41:44;20.40;;;12.10;;
67500;SDS011;54349;52.528;19.760;2023-03-03T03:44:12;19.80;;;12.80;;
67500;SDS011;54349;52.528;19.760;2023-03-03T03:46:40;22.20;;;13.50;;
67500;SDS011;54349;52.528;19.760;2023-03-03T03:49:10;21.10;;;12.30;;
67500;SDS011;54349;52.528;19.760;2023-03-03T03:51:38;20.10;;;13.00;;
67500;SDS011;54349;52.528;19.760;2023-03-03T03:54:10;22.00;;;12.60;;
67500;SDS011;54349;52.528;19.760;2023-03-03T03:56:38;21.50;;;12.80;;
67500;SDS011;54349;52.528;19.760;2023-03-03T03:59:07;21.10;;;12.50;;
67500;SDS011;54349;52.528;19.760;2023-03-03T04:01:35;18.30;;;12.60;;
67500;SDS011;54349;52.528;19.760;2023-03-03T04:04:04;21.10;;;12.80;;
67500;SDS011;54349;52.528;19.760;2023-03-03T04:06:32;20.50;;;12.20;;
67500;SDS011;54349;52.528;19.760;2023-03-03T04:09:01;20.50;;;12.70;;
67500;SDS011;54349;52.528;19.760;2023-03-03T04:11:30;20.30;;;13.20;;
67500;SDS011;54349;52.528;19.760;2023-03-03T04:13:59;19.70;;;12.00;;
67500;SDS011;54349;52.528;19.760;2023-03-03T04:16:27;20.70;;;12.40;;
67500;SDS011;54349;52.528;19.760;2023-03-03T04:18:55;18.90;;;11.90;;
67500;SDS011;54349;52.528;19.760;2023-03-03T04:21:24;20.10;;;12.30;;
67500;SDS011;54349;52.528;19.760;2023-03-03T04:23:53;21.10;;;12.80;;
67500;SDS011;54349;52.528;19.760;2023-03-03T04:26:21;20.10;;;12.70;;
67500;SDS011;54349;52.528;19.760;2023-03-03T04:28:49;20.50;;;12.60;;
67500;SDS011;54349;52.528;19.760;2023-03-03T04:31:18;21.30;;;12.90;;
67500;SDS011;54349;52.528;19.760;2023-03-03T04:33:47;21.00;;;12.70;;
67500;SDS011;54349;52.528;19.760;2023-03-03T04:36:16;21.60;;;12.80;;
67500;SDS011;54349;52.528;19.760;2023-03-03T04:38:45;23.80;;;13.30;;
67500;SDS011;54349;52.528;19.760;2023-03-03T04:41:14;21.80;;;13.20;;
67500;SDS011;54349;52.528;19.760;2023-03-03T04:43:43;23.50;;;13.70;;
67500;SDS011;54349;52.528;19.760;2023-03-03T04:46:12;20.60;;;13.20;;
67500;SDS011;54349;52.528;19.760;2023-03-03T04:48:40;23.10;;;13.50;;
67500;SDS011;54349;52.528;19.760;2023-03-03T04:51:09;21.20;;;13.00;;
67500;SDS011;54349;52.528;19.760;2023-03-03T04:53:38;22.10;;;13.00;;
67500;SDS011;54349;52.528;19.760;2023-03-03T04:56:06;22.80;;;13.30;;
67500;SDS011;54349;52.528;19.760;2023-03-03T04:58:36;22.70;;;13.30;;
67500;SDS011;54349;52.528;19.760;2023-03-03T05:01:05;20.10;;;12.40;;
67500;SDS011;54349;52.528;19.760;2023-03-03T05:03:33;18.60;;;12.10;;
67500;SDS011;54349;52.528;19.760;2023-03-03T05:06:02;19.50;;;11.90;;
67500;SDS011;54349;52.528;19.760;2023-03-03T05:08:30;19.10;;;11.60;;
67500;SDS011;54349;52.528;19.760;2023-03-03T05:10:58;18.70;;;11.30;;
67500;SDS011;54349;52.528;19.760;2023-03-03T05:13:28;19.60;;;11.70;;
67500;SDS011;54349;52.528;19.760;2023-03-03T05:15:56;16.40;;;10.70;;
67500;SDS011;54349;52.528;19.760;2023-03-03T05:18:25;16.10;;;10.80;;
67500;SDS011;54349;52.528;19.760;2023-03-03T05:20:54;18.00;;;11.30;;
67500;SDS011;54349;52.528;19.760;2023-03-03T05:23:23;16.90;;;10.90;;
67500;SDS011;54349;52.528;19.760;2023-03-03T05:25:51;16.00;;;10.20;;
67500;SDS011;54349;52.528;19.760;2023-03-03T05:28:19;15.50;;;10.10;;
67500;SDS011;54349;52.528;19.760;2023-03-03T05:30:47;15.90;;;11.00;;
67500;SDS011;54349;52.528;19.760;2023-03-03T05:33:16;15.70;;;10.80;;
67500;SDS011;54349;52.528;19.760;2023-03-03T05:35:44;15.80;;;10.50;;
67500;SDS011;54349;52.528;19.760;2023-03-03T05:38:13;17.30;;;10.30;;
67500;SDS011;54349;52.528;19.760;2023-03-03T05:40:40;13.10;;;9.50;;
67500;SDS011;54349;52.528;19.760;2023-03-03T05:43:10;14.80;;;10.00;;
67500;SDS011;54349;52.528;19.760;2023-03-03T05:45:38;15.30;;;10.00;;
67500;SDS011;54349;52.528;19.760;2023-03-03T05:48:07;14.90;;;9.90;;
67500;SDS011;54349;52.528;19.760;2023-03-03T05:50:37;16.60;;;9.50;;
67500;SDS011;54349;52.528;19.760;2023-03-03T05:53:05;15.10;;;9.40;;
67500;SDS011;54349;52.528;19.760;2023-03-03T05:55:33;13.60;;;9.00;;
67500;SDS011;54349;52.528;19.760;2023-03-03T05:58:01;15.00;;;9.30;;
67500;SDS011;54349;52.528;19.760;2023-03-03T06:00:30;15.80;;;9.90;;
67500;SDS011;54349;52.528;19.760;2023-03-03T06:02:58;14.70;;;9.80;;
67500;SDS011;54349;52.528;19.760;2023-03-03T06:05:26;15.70;;;9.80;;
67500;SDS011;54349;52.528;19.760;2023-03-03T06:07:55;15.20;;;9.60;;
67500;SDS011;54349;52.528;19.760;2023-03-03T06:10:23;14.30;;;9.70;;
67500;SDS011;54349;52.528;19.760;2023-03-03T06:12:52;14.90;;;9.40;;
67500;SDS011;54349;52.528;19.760;2023-03-03T06:15:23;15.80;;;9.70;;
67500;SDS011;54349;52.528;19.760;2023-03-03T06:17:51;16.20;;;9.60;;
67500;SDS011;54349;52.528;19.760;2023-03-03T06:20:19;15.00;;;9.50;;
67500;SDS011;54349;52.528;19.760;2023-03-03T06:22:47;14.70;;;9.60;;
67500;SDS011;54349;52.528;19.760;2023-03-03T06:25:16;15.10;;;9.80;;
67500;SDS011;54349;52.528;19.760;2023-03-03T06:27:45;14.70;;;9.60;;
67500;SDS011;54349;52.528;19.760;2023-03-03T06:30:13;15.60;;;9.80;;
67500;SDS011;54349;52.528;19.760;2023-03-03T06:32:42;14.10;;;9.10;;
67500;SDS011;54349;52.528;19.760;2023-03-03T06:35:10;14.30;;;9.60;;
67500;SDS011;54349;52.528;19.760;2023-03-03T06:37:38;15.00;;;9.60;;
67500;SDS011;54349;52.528;19.760;2023-03-03T06:40:08;14.70;;;9.30;;
67500;SDS011;54349;52.528;19.760;2023-03-03T06:42:37;14.00;;;9.80;;
67500;SDS011;54349;52.528;19.760;2023-03-03T06:45:05;14.30;;;9.70;;
67500;SDS011;54349;52.528;19.760;2023-03-03T06:47:33;14.50;;;9.60;;
67500;SDS011;54349;52.528;19.760;2023-03-03T06:50:02;14.60;;;9.00;;
67500;SDS011;54349;52.528;19.760;2023-03-03T06:52:30;12.90;;;8.70;;
67500;SDS011;54349;52.528;19.760;2023-03-03T06:55:01;13.40;;;9.60;;
67500;SDS011;54349;52.528;19.760;2023-03-03T06:57:38;13.90;;;9.20;;
67500;SDS011;54349;52.528;19.760;2023-03-03T07:00:22;16.60;;;9.80;;
67500;SDS011;54349;52.528;19.760;2023-03-03T07:03:07;14.70;;;9.20;;
67500;SDS011;54349;52.528;19.760;2023-03-03T07:05:41;16.30;;;8.90;;
67500;SDS011;54349;52.528;19.760;2023-03-03T07:08:17;16.60;;;9.90;;
67500;SDS011;54349;52.528;19.760;2023-03-03T07:10:48;13.90;;;9.10;;
67500;SDS011;54349;52.528;19.760;2023-03-03T07:13:24;16.70;;;8.80;;
67500;SDS011;54349;52.528;19.760;2023-03-03T07:15:58;16.00;;;9.50;;
67500;SDS011;54349;52.528;19.760;2023-03-03T07:21:35;14.90;;;8.90;;
67500;SDS011;54349;52.528;19.760;2023-03-03T07:24:21;16.70;;;8.80;;
67500;SDS011;54349;52.528;19.760;2023-03-03T07:26:59;18.40;;;9.10;;
67500;SDS011;54349;52.528;19.760;2023-03-03T07:29:29;18.00;;;8.80;;
67500;SDS011;54349;52.528;19.760;2023-03-03T07:32:00;18.30;;;9.20;;
67500;SDS011;54349;52.528;19.760;2023-03-03T07:34:48;16.20;;;9.20;;
67500;SDS011;54349;52.528;19.760;2023-03-03T07:37:31;15.00;;;8.40;;
67500;SDS011;54349;52.528;19.760;2023-03-03T07:43:47;16.80;;;8.30;;
67500;SDS011;54349;52.528;19.760;2023-03-03T07:46:42;15.50;;;8.20;;
67500;SDS011;54349;52.528;19.760;2023-03-03T07:49:36;14.80;;;8.80;;
67500;SDS011;54349;52.528;19.760;2023-03-03T07:52:19;19.30;;;11.10;;
67500;SDS011;54349;52.528;19.760;2023-03-03T07:55:00;17.20;;;9.50;;
67500;SDS011;54349;52.528;19.760;2023-03-03T07:57:39;15.50;;;9.40;;
67500;SDS011;54349;52.528;19.760;2023-03-03T08:02:44;16.60;;;8.60;;
67500;SDS011;54349;52.528;19.760;2023-03-03T08:05:41;15.10;;;8.00;;
67500;SDS011;54349;52.528;19.760;2023-03-03T08:08:57;215.80;;;56.70;;
67500;SDS011;54349;52.528;19.760;2023-03-03T08:11:03;175.50;;;48.50;;
67500;SDS011;54349;52.528;19.760;2023-03-03T08:18:43;83.60;;;31.60;;
67500;SDS011;54349;52.528;19.760;2023-03-03T08:21:22;152.80;;;54.40;;
67500;SDS011;54349;52.528;19.760;2023-03-03T08:23:52;83.10;;;31.60;;
67500;SDS011;54349;52.528;19.760;2023-03-03T08:26:22;72.90;;;26.60;;
67500;SDS011;54349;52.528;19.760;2023-03-03T08:28:52;54.40;;;21.40;;
67500;SDS011;54349;52.528;19.760;2023-03-03T08:31:21;352.90;;;102.60;;
67500;SDS011;54349;52.528;19.760;2023-03-03T08:34:07;274.70;;;78.00;;
67500;SDS011;54349;52.528;19.760;2023-03-03T08:36:35;286.20;;;84.30;;
67500;SDS011;54349;52.528;19.760;2023-03-03T08:39:04;154.10;;;50.30;;
67500;SDS011;54349;52.528;19.760;2023-03-03T08:41:32;102.00;;;35.50;;
67500;SDS011;54349;52.528;19.760;2023-03-03T08:44:00;79.60;;;29.00;;
67500;SDS011;54349;52.528;19.760;2023-03-03T08:46:28;71.20;;;25.70;;
67500;SDS011;54349;52.528;19.760;2023-03-03T08:48:56;63.90;;;24.00;;
67500;SDS011;54349;52.528;19.760;2023-03-03T08:51:25;55.10;;;20.80;;
67500;SDS011;54349;52.528;19.760;2023-03-03T08:53:53;48.60;;;20.90;;
67500;SDS011;54349;52.528;19.760;2023-03-03T08:56:21;55.90;;;21.20;;
67500;SDS011;54349;52.528;19.760;2023-03-03T08:58:49;45.50;;;18.90;;
67500;SDS011;54349;52.528;19.760;2023-03-03T09:01:33;47.00;;;18.10;;
67500;SDS011;54349;52.528;19.760;2023-03-03T09:04:01;44.10;;;17.50;;
67500;SDS011;54349;52.528;19.760;2023-03-03T09:06:30;43.90;;;17.00;;
67500;SDS011;54349;52.528;19.760;2023-03-03T09:08:58;39.80;;;17.10;;
67500;SDS011;54349;52.528;19.760;2023-03-03T09:11:28;42.00;;;17.20;;
67500;SDS011;54349;52.528;19.760;2023-03-03T09:14:17;40.40;;;16.70;;
67500;SDS011;54349;52.528;19.760;2023-03-03T09:16:50;40.40;;;15.60;;
67500;SDS011;54349;52.528;19.760;2023-03-03T09:19:31;38.40;;;15.90;;
67500;SDS011;54349;52.528;19.760;2023-03-03T09:22:24;33.90;;;15.40;;
67500;SDS011;54349;52.528;19.760;2023-03-03T09:24:56;34.10;;;15.20;;
67500;SDS011;54349;52.528;19.760;2023-03-03T09:27:30;34.40;;;14.70;;
67500;SDS011;54349;52.528;19.760;2023-03-03T09:36:29;34.20;;;14.70;;
67500;SDS011;54349;52.528;19.760;2023-03-03T09:39:23;31.70;;;14.00;;
67500;SDS011;54349;52.528;19.760;2023-03-03T09:48:28;28.20;;;13.00;;
67500;SDS011;54349;52.528;19.760;2023-03-03T09:51:17;32.20;;;14.30;;
67500;SDS011;54349;52.528;19.760;2023-03-03T10:00:37;29.00;;;12.80;;
67500;SDS011;54349;52.528;19.760;2023-03-03T10:03:52;28.30;;;12.20;;
67500;SDS011;54349;52.528;19.760;2023-03-03T10:12:27;24.00;;;11.60;;
67500;SDS011;54349;52.528;19.760;2023-03-03T10:18:14;23.60;;;11.10;;
67500;SDS011;54349;52.528;19.760;2023-03-03T10:21:03;20.70;;;10.30;;
67500;SDS011;54349;52.528;19.760;2023-03-03T10:24:13;22.10;;;10.80;;
67500;SDS011;54349;52.528;19.760;2023-03-03T10:27:04;24.50;;;11.50;;
67500;SDS011;54349;52.528;19.760;2023-03-03T10:33:58;21.60;;;10.90;;
67500;SDS011;54349;52.528;19.760;2023-03-03T10:40:02;27.30;;;10.50;;
67500;SDS011;54349;52.528;19.760;2023-03-03T10:46:05;20.80;;;10.80;;
67500;SDS011;54349;52.528;19.760;2023-03-03T11:09:43;19.40;;;9.90;;
67500;SDS011;54349;52.528;19.760;2023-03-03T11:21:37;17.70;;;8.60;;
67500;SDS011;54349;52.528;19.760;2023-03-03T11:24:22;16.50;;;8.00;;
67500;SDS011;54349;52.528;19.760;2023-03-03T11:33:08;17.50;;;7.60;;
67500;SDS011;54349;52.528;19.760;2023-03-03T11:35:50;14.70;;;8.10;;
67500;SDS011;54349;52.528;19.760;2023-03-03T11:42:00;14.20;;;7.50;;
67500;SDS011;54349;52.528;19.760;2023-03-03T11:44:39;14.60;;;7.30;;
67500;SDS011;54349;52.528;19.760;2023-03-03T11:47:27;13.70;;;6.80;;
67500;SDS011;54349;52.528;19.760;2023-03-03T11:50:19;12.90;;;7.50;;
67500;SDS011;54349;52.528;19.760;2023-03-03T11:53:19;13.60;;;7.10;;
67500;SDS011;54349;52.528;19.760;2023-03-03T11:59:02;13.20;;;7.20;;
67500;SDS011;54349;52.528;19.760;2023-03-03T12:02:06;11.80;;;6.30;;
67500;SDS011;54349;52.528;19.760;2023-03-03T12:05:18;11.70;;;6.10;;
67500;SDS011;54349;52.528;19.760;2023-03-03T12:08:07;10.80;;;6.30;;
67500;SDS011;54349;52.528;19.760;2023-03-03T12:11:17;11.00;;;6.30;;
67500;SDS011;54349;52.528;19.760;2023-03-03T12:16:35;14.50;;;7.40;;
67500;SDS011;54349;52.528;19.760;2023-03-03T12:56:56;13.80;;;7.30;;
67500;SDS011;54349;52.528;19.760;2023-03-03T13:03:00;12.40;;;7.40;;
67500;SDS011;54349;52.528;19.760;2023-03-03T13:08:50;12.10;;;6.90;;
67500;SDS011;54349;52.528;19.760;2023-03-03T13:11:40;11.40;;;6.50;;
67500;SDS011;54349;52.528;19.760;2023-03-03T13:20:43;15.00;;;7.80;;
67500;SDS011;54349;52.528;19.760;2023-03-03T13:26:43;12.20;;;6.80;;
67500;SDS011;54349;52.528;19.760;2023-03-03T13:38:23;12.10;;;6.80;;
67500;SDS011;54349;52.528;19.760;2023-03-03T13:43:54;11.10;;;6.60;;
67500;SDS011;54349;52.528;19.760;2023-03-03T13:49:34;12.10;;;7.10;;
67500;SDS011;54349;52.528;19.760;2023-03-03T13:52:10;12.70;;;7.00;;
67500;SDS011;54349;52.528;19.760;2023-03-03T13:57:51;11.70;;;6.70;;
67500;SDS011;54349;52.528;19.760;2023-03-03T14:00:51;10.50;;;6.60;;
67500;SDS011;54349;52.528;19.760;2023-03-03T14:06:34;12.10;;;6.70;;
67500;SDS011;54349;52.528;19.760;2023-03-03T14:09:20;10.20;;;5.90;;
67500;SDS011;54349;52.528;19.760;2023-03-03T14:12:13;9.80;;;6.30;;
67500;SDS011;54349;52.528;19.760;2023-03-03T14:15:10;9.30;;;5.80;;
67500;SDS011;54349;52.528;19.760;2023-03-03T14:20:48;9.30;;;5.40;;
67500;SDS011;54349;52.528;19.760;2023-03-03T14:26:07;10.30;;;5.20;;
67500;SDS011;54349;52.528;19.760;2023-03-03T14:28:44;8.60;;;5.10;;
67500;SDS011;54349;52.528;19.760;2023-03-03T14:34:23;9.20;;;5.10;;
67500;SDS011;54349;52.528;19.760;2023-03-03T14:37:09;9.40;;;5.20;;
67500;SDS011;54349;52.528;19.760;2023-03-03T14:48:25;9.00;;;5.00;;
67500;SDS011;54349;52.528;19.760;2023-03-03T14:50:57;7.40;;;4.40;;
67500;SDS011;54349;52.528;19.760;2023-03-03T14:53:44;8.30;;;5.20;;
67500;SDS011;54349;52.528;19.760;2023-03-03T14:59:22;8.70;;;5.40;;
67500;SDS011;54349;52.528;19.760;2023-03-03T15:02:02;8.20;;;5.40;;
67500;SDS011;54349;52.528;19.760;2023-03-03T15:04:45;9.00;;;5.20;;
67500;SDS011;54349;52.528;19.760;2023-03-03T15:07:32;7.70;;;4.90;;
67500;SDS011;54349;52.528;19.760;2023-03-03T15:10:04;7.70;;;4.60;;
67500;SDS011;54349;52.528;19.760;2023-03-03T15:12:40;9.20;;;5.40;;
67500;SDS011;54349;52.528;19.760;2023-03-03T15:17:42;8.50;;;5.30;;
67500;SDS011;54349;52.528;19.760;2023-03-03T15:20:46;9.40;;;5.80;;
67500;SDS011;54349;52.528;19.760;2023-03-03T15:24:02;8.10;;;5.20;;
67500;SDS011;54349;52.528;19.760;2023-03-03T15:26:56;10.00;;;5.00;;
67500;SDS011;54349;52.528;19.760;2023-03-03T15:35:47;7.90;;;4.70;;
67500;SDS011;54349;52.528;19.760;2023-03-03T15:38:33;8.20;;;4.90;;
67500;SDS011;54349;52.528;19.760;2023-03-03T15:41:36;7.30;;;4.50;;
67500;SDS011;54349;52.528;19.760;2023-03-03T15:46:48;8.60;;;5.00;;
67500;SDS011;54349;52.528;19.760;2023-03-03T15:50:06;9.10;;;5.60;;
67500;SDS011;54349;52.528;19.760;2023-03-03T15:53:03;8.10;;;5.30;;
67500;SDS011;54349;52.528;19.760;2023-03-03T15:56:06;7.70;;;5.10;;
67500;SDS011;54349;52.528;19.760;2023-03-03T16:04:35;8.20;;;5.40;;
67500;SDS011;54349;52.528;19.760;2023-03-03T16:19:28;8.10;;;5.50;;
67500;SDS011;54349;52.528;19.760;2023-03-03T16:28:07;8.90;;;5.20;;
67500;SDS011;54349;52.528;19.760;2023-03-03T16:34:17;7.40;;;4.80;;
67500;SDS011;54349;52.528;19.760;2023-03-03T16:37:03;8.00;;;5.40;;
67500;SDS011;54349;52.528;19.760;2023-03-03T16:42:43;8.10;;;5.30;;
67500;SDS011;54349;52.528;19.760;2023-03-03T16:45:26;7.90;;;5.10;;
67500;SDS011;54349;52.528;19.760;2023-03-03T16:53:52;7.10;;;4.70;;
67500;SDS011;54349;52.528;19.760;2023-03-03T16:59:41;9.00;;;5.00;;
67500;SDS011;54349;52.528;19.760;2023-03-03T17:02:31;7.70;;;5.40;;
67500;SDS011;54349;52.528;19.760;2023-03-03T17:17:00;8.00;;;4.70;;
67500;SDS011;54349;52.528;19.760;2023-03-03T17:20:13;7.40;;;4.70;;
67500;SDS011;54349;52.528;19.760;2023-03-03T17:29:33;6.80;;;4.60;;
67500;SDS011;54349;52.528;19.760;2023-03-03T17:41:44;8.90;;;5.60;;
67500;SDS011;54349;52.528;19.760;2023-03-03T17:56:56;7.50;;;5.10;;
67500;SDS011;54349;52.528;19.760;2023-03-03T18:00:23;7.10;;;4.60;;
67500;SDS011;54349;52.528;19.760;2023-03-03T18:22:49;8.40;;;5.20;;
67500;SDS011;54349;52.528;19.760;2023-03-03T18:26:27;7.90;;;4.80;;
67500;SDS011;54349;52.528;19.760;2023-03-03T18:28:36;7.60;;;4.70;;
67500;SDS011;54349;52.528;19.760;2023-03-03T18:31:25;7.00;;;4.60;;
67500;SDS011;54349;52.528;19.760;2023-03-03T18:34:09;7.50;;;4.90;;
67500;SDS011;54349;52.528;19.760;2023-03-03T18:36:57;8.40;;;5.00;;
67500;SDS011;54349;52.528;19.760;2023-03-03T18:44:43;7.60;;;4.70;;
67500;SDS011;54349;52.528;19.760;2023-03-03T18:47:14;7.00;;;4.40;;
67500;SDS011;54349;52.528;19.760;2023-03-03T18:49:51;6.70;;;4.40;;
67500;SDS011;54349;52.528;19.760;2023-03-03T18:57:37;8.10;;;4.80;;
67500;SDS011;54349;52.528;19.760;2023-03-03T19:00:24;8.60;;;5.10;;
67500;SDS011;54349;52.528;19.760;2023-03-03T19:02:58;7.50;;;4.60;;
67500;SDS011;54349;52.528;19.760;2023-03-03T19:05:35;7.50;;;4.70;;
67500;SDS011;54349;52.528;19.760;2023-03-03T19:08:44;6.90;;;4.30;;
67500;SDS011;54349;52.528;19.760;2023-03-03T19:11:48;7.70;;;4.70;;
67500;SDS011;54349;52.528;19.760;2023-03-03T19:16:58;6.70;;;4.40;;
67500;SDS011;54349;52.528;19.760;2023-03-03T19:20:09;6.70;;;4.00;;
67500;SDS011;54349;52.528;19.760;2023-03-03T19:22:46;7.30;;;4.30;;
67500;SDS011;54349;52.528;19.760;2023-03-03T19:25:21;7.30;;;4.20;;
67500;SDS011;54349;52.528;19.760;2023-03-03T19:30:55;6.40;;;4.10;;
67500;SDS011;54349;52.528;19.760;2023-03-03T19:36:58;6.50;;;4.10;;
67500;SDS011;54349;52.528;19.760;2023-03-03T19:42:43;6.40;;;4.10;;
67500;SDS011;54349;52.528;19.760;2023-03-03T19:51:50;6.80;;;4.30;;
67500;SDS011;54349;52.528;19.760;2023-03-03T19:58:11;6.50;;;4.40;;
67500;SDS011;54349;52.528;19.760;2023-03-03T20:00:56;7.80;;;4.40;;
67500;SDS011;54349;52.528;19.760;2023-03-03T20:06:42;7.40;;;4.80;;
67500;SDS011;54349;52.528;19.760;2023-03-03T20:16:17;7.10;;;4.50;;
67500;SDS011;54349;52.528;19.760;2023-03-03T20:26:30;8.10;;;4.80;;
67500;SDS011;54349;52.528;19.760;2023-03-03T20:34:59;6.50;;;4.40;;
67500;SDS011;54349;52.528;19.760;2023-03-03T20:40:37;6.90;;;4.20;;
67500;SDS011;54349;52.528;19.760;2023-03-03T20:58:01;7.70;;;4.80;;
67500;SDS011;54349;52.528;19.760;2023-03-03T21:00:51;7.30;;;4.20;;
67500;SDS011;54349;52.528;19.760;2023-03-03T21:03:41;9.20;;;4.70;;
67500;SDS011;54349;52.528;19.760;2023-03-03T21:06:14;7.40;;;4.50;;
67500;SDS011;54349;52.528;19.760;2023-03-03T21:11:21;9.50;;;5.40;;
67500;SDS011;54349;52.528;19.760;2023-03-03T21:13:52;9.30;;;5.30;;
67500;SDS011;54349;52.528;19.760;2023-03-03T21:19:03;9.60;;;5.30;;
67500;SDS011;54349;52.528;19.760;2023-03-03T21:21:39;7.70;;;4.70;;
67500;SDS011;54349;52.528;19.760;2023-03-03T21:24:12;8.90;;;4.90;;
67500;SDS011;54349;52.528;19.760;2023-03-03T21:37:11;10.00;;;5.20;;
67500;SDS011;54349;52.528;19.760;2023-03-03T21:39:43;8.90;;;5.40;;
67500;SDS011;54349;52.528;19.760;2023-03-03T21:42:14;7.90;;;4.80;;
67500;SDS011;54349;52.528;19.760;2023-03-03T21:44:49;9.00;;;5.30;;
67500;SDS011;54349;52.528;19.760;2023-03-03T21:47:21;8.40;;;4.80;;
67500;SDS011;54349;52.528;19.760;2023-03-03T21:49:51;9.20;;;5.40;;
67500;SDS011;54349;52.528;19.760;2023-03-03T21:52:21;8.70;;;5.50;;
67500;SDS011;54349;52.528;19.760;2023-03-03T21:54:50;9.20;;;5.30;;
67500;SDS011;54349;52.528;19.760;2023-03-03T21:57:19;9.20;;;5.90;;
67500;SDS011;54349;52.528;19.760;2023-03-03T21:59:48;8.90;;;5.10;;
67500;SDS011;54349;52.528;19.760;2023-03-03T22:02:17;9.20;;;5.50;;
67500;SDS011;54349;52.528;19.760;2023-03-03T22:04:46;9.10;;;5.30;;
67500;SDS011;54349;52.528;19.760;2023-03-03T22:07:15;8.60;;;5.20;;
67500;SDS011;54349;52.528;19.760;2023-03-03T22:09:44;7.80;;;4.70;;
67500;SDS011;54349;52.528;19.760;2023-03-03T22:12:12;9.50;;;5.60;;